Time;durP1;ratioP1;P1;durP2;ratioP2;P2;SDS_P1;SDS_P2;PMS_P1;PMS_P2;Temp;Humidity;BMP_temperature;BMP_pressure;BME280_temperature;BME280_humidity;BME280_pressure;Samples;Min_cycle;Max_cycle;Signal;HPM_P1;HPM_P2
2022/07/18 00:00:23;;;;;;;5.00;2.80;;;;;;;17.13;59.14;102324.97;5055237;28;20384;-71
2022/07/18 00:02:48;;;;;;;4.85;2.55;;;;;;;17.06;59.81;102327.84;5058758;28;20036;-72
2022/07/18 00:05:13;;;;;;;6.95;2.78;;;;;;;16.99;60.28;102322.75;5042673;28;20035;-72
2022/07/18 00:07:39;;;;;;;6.70;2.63;;;;;;;16.94;60.92;102318.50;5059007;28;20107;-71
2022/07/18 00:10:05;;;;;;;5.75;2.75;;;;;;;16.89;60.81;102312.53;5062447;28;20476;-71
2022/07/18 00:12:30;;;;;;;4.88;2.80;;;;;;;16.86;59.18;102317.88;5053365;28;20433;-71
2022/07/18 00:14:55;;;;;;;5.97;2.70;;;;;;;16.81;59.19;102316.22;5060682;28;20017;-71
2022/07/18 00:17:21;;;;;;;4.55;2.67;;;;;;;16.80;58.55;102319.75;5057375;28;20035;-71
2022/07/18 00:19:46;;;;;;;4.50;2.90;;;;;;;16.78;58.68;102311.06;5056067;28;20020;-71
2022/07/18 00:22:11;;;;;;;6.30;3.08;;;;;;;16.73;59.71;102315.59;5057335;28;20024;-71
2022/07/18 00:24:39;;;;;;;6.72;3.40;;;;;;;16.67;59.90;102305.25;5056687;28;20045;-71
2022/07/18 00:27:07;;;;;;;6.90;3.20;;;;;;;16.65;59.63;102304.44;5051152;28;20107;-71
2022/07/18 00:29:35;;;;;;;6.68;3.10;;;;;;;16.62;59.51;102307.13;5053849;28;20024;-71
2022/07/18 00:32:01;;;;;;;5.85;3.28;;;;;;;16.58;59.66;102300.25;5063662;28;20028;-72
2022/07/18 00:34:26;;;;;;;4.60;2.60;;;;;;;16.53;59.54;102301.25;5064275;28;20226;-71
2022/07/18 00:36:51;;;;;;;6.03;2.95;;;;;;;16.49;59.74;102309.22;5048118;28;20070;-72
2022/07/18 00:39:16;;;;;;;4.95;2.80;;;;;;;16.44;60.20;102298.00;5060709;28;20036;-71
2022/07/18 00:41:46;;;;;;;6.28;2.85;;;;;;;16.39;60.06;102299.00;5059083;28;20072;-72
2022/07/18 00:44:16;;;;;;;5.28;3.10;;;;;;;16.36;60.12;102295.59;5060202;28;20029;-71
2022/07/18 00:46:42;;;;;;;5.68;2.88;;;;;;;16.32;60.85;102299.19;5041607;28;20025;-71
2022/07/18 00:49:07;;;;;;;4.57;2.90;;;;;;;16.30;60.19;102290.50;5052329;28;20033;-71
2022/07/18 00:51:36;;;;;;;5.53;3.15;;;;;;;16.29;60.25;102296.66;5063358;28;20049;-71
2022/07/18 00:54:03;;;;;;;4.60;3.17;;;;;;;16.25;60.64;102288.00;5060608;28;20370;-71
2022/07/18 00:56:28;;;;;;;5.13;2.83;;;;;;;16.19;61.65;102280.28;5044899;28;20025;-71
2022/07/18 00:58:53;;;;;;;5.65;3.13;;;;;;;16.15;61.76;102282.13;5062498;28;20024;-71
2022/07/18 01:04:03;;;;;;;5.68;2.92;;;;;;;16.06;61.71;102288.47;5057256;28;20276;-71
2022/07/18 01:06:28;;;;;;;5.65;2.95;;;;;;;16.03;61.93;102287.69;5064680;28;20460;-71
2022/07/18 01:08:54;;;;;;;5.95;2.90;;;;;;;16.00;62.59;102283.38;5063684;28;20075;-71
2022/07/18 01:11:21;;;;;;;5.45;3.25;;;;;;;15.98;62.88;102284.31;5060835;28;20056;-71
2022/07/18 01:13:46;;;;;;;6.05;2.67;;;;;;;15.93;62.33;102284.44;5061547;28;20036;-71
2022/07/18 01:16:15;;;;;;;3.50;2.65;;;;;;;15.92;62.01;102280.09;5061518;28;20020;-71
2022/07/18 01:18:48;;;;;;;6.03;3.13;;;;;;;15.89;61.93;102269.66;5057513;28;20028;-71
2022/07/18 01:21:14;;;;;;;4.88;3.13;;;;;;;15.82;63.42;102270.66;5056737;28;20037;-71
2022/07/18 01:23:40;;;;;;;5.43;2.80;;;;;;;15.77;63.02;102270.78;5059232;28;20082;-71
2022/07/18 01:26:05;;;;;;;6.15;2.80;;;;;;;15.72;63.46;102273.53;5060987;28;20021;-71
2022/07/18 01:28:30;;;;;;;5.80;2.97;;;;;;;15.69;63.81;102268.34;5060209;28;20086;-72
2022/07/18 01:30:56;;;;;;;5.00;3.08;;;;;;;15.69;63.33;102275.38;5064412;28;20032;-71
2022/07/18 01:33:21;;;;;;;9.68;3.00;;;;;;;15.70;62.79;102274.50;5064769;28;20020;-71
2022/07/18 01:35:46;;;;;;;4.88;2.95;;;;;;;15.69;62.88;102273.59;5058626;28;20033;-71
2022/07/18 01:38:12;;;;;;;6.70;3.08;;;;;;;15.68;62.80;102263.16;5060984;28;20134;-71
2022/07/18 01:40:37;;;;;;;6.68;3.20;;;;;;;15.63;62.77;102266.75;5057917;28;20060;-71
2022/07/18 01:43:03;;;;;;;6.43;2.80;;;;;;;15.59;63.16;102272.13;5062936;28;20044;-71
2022/07/18 01:45:28;;;;;;;5.97;2.97;;;;;;;15.57;62.65;102274.75;5061507;28;20100;-71
2022/07/18 01:47:53;;;;;;;5.10;3.00;;;;;;;15.51;63.72;102269.69;5061397;28;20024;-71
2022/07/18 01:50:19;;;;;;;4.55;3.05;;;;;;;15.48;63.10;102270.59;5064213;28;20100;-71
2022/07/18 01:52:44;;;;;;;5.47;3.08;;;;;;;15.45;63.57;102264.56;5062359;28;20020;-71
2022/07/18 01:55:10;;;;;;;5.70;3.08;;;;;;;15.43;63.69;102271.59;5063248;28;20013;-71
2022/07/18 01:57:36;;;;;;;5.80;3.13;;;;;;;15.40;63.73;102267.31;5062919;28;20403;-71
2022/07/18 02:00:05;;;;;;;6.15;2.55;;;;;;;15.39;64.51;102264.69;5058018;28;20021;-71
2022/07/18 02:02:30;;;;;;;4.22;2.38;;;;;;;15.37;64.58;102266.53;5055643;28;20032;-71
2022/07/18 02:04:59;;;;;;;5.88;2.88;;;;;;;15.36;63.19;102263.03;5042913;28;20033;-71
2022/07/18 02:07:24;;;;;;;5.50;2.72;;;;;;;15.32;63.86;102259.63;5059538;28;20032;-71
2022/07/18 02:09:49;;;;;;;5.60;2.75;;;;;;;15.29;63.74;102259.69;5060327;28;20470;-71
2022/07/18 02:12:15;;;;;;;4.53;3.00;;;;;;;15.28;63.51;102262.34;5059795;28;20391;-71
2022/07/18 02:14:40;;;;;;;4.53;2.97;;;;;;;15.26;63.62;102264.13;5059011;28;20033;-71
2022/07/18 02:17:05;;;;;;;5.70;3.13;;;;;;;15.26;63.38;102262.38;5054787;28;20126;-71
2022/07/18 02:19:30;;;;;;;5.15;3.35;;;;;;;15.21;63.10;102258.97;5060064;28;20462;-72
2022/07/18 02:21:56;;;;;;;5.03;3.00;;;;;;;15.16;63.82;102251.22;5058561;28;20030;-71
2022/07/18 02:24:21;;;;;;;4.63;3.10;;;;;;;15.16;64.41;102245.13;5058028;28;20025;-71
2022/07/18 02:26:47;;;;;;;6.97;3.17;;;;;;;15.13;63.27;102238.19;5062717;28;20438;-71
2022/07/18 02:29:12;;;;;;;5.57;3.55;;;;;;;15.09;64.38;102236.53;5060088;28;20020;-71
2022/07/18 02:31:37;;;;;;;6.95;3.25;;;;;;;15.08;64.58;102233.94;5064453;28;20100;-70
2022/07/18 02:34:09;;;;;;;6.32;2.90;;;;;;;15.06;64.60;102230.50;5056907;28;20033;-70
2022/07/18 02:36:37;;;;;;;6.68;3.13;;;;;;;15.03;64.62;102226.19;5061273;28;20182;-71
2022/07/18 02:39:03;;;;;;;5.45;2.90;;;;;;;15.02;65.53;102235.81;5059080;28;20543;-71
2022/07/18 02:41:29;;;;;;;6.40;3.10;;;;;;;15.00;64.58;102237.63;5067954;28;20051;-71
2022/07/18 02:43:54;;;;;;;5.13;3.42;;;;;;;15.00;64.40;102236.72;5059456;28;20052;-71
2022/07/18 02:46:20;;;;;;;5.25;3.00;;;;;;;14.98;64.70;102239.41;5058977;28;20038;-71
2022/07/18 02:48:45;;;;;;;5.00;3.20;;;;;;;14.94;64.63;102236.88;5061638;28;20047;-71
2022/07/18 02:51:10;;;;;;;4.57;2.90;;;;;;;14.93;64.25;102240.41;5058934;28;20036;-71
2022/07/18 02:53:36;;;;;;;5.03;3.15;;;;;;;14.92;64.14;102236.91;5061072;28;20376;-71
2022/07/18 02:56:01;;;;;;;6.47;3.70;;;;;;;14.88;64.23;102237.84;5053520;28;20024;-71
2022/07/18 02:58:26;;;;;;;7.22;3.50;;;;;;;14.86;64.22;102235.28;5058110;28;20035;-71
2022/07/18 03:00:51;;;;;;;6.75;3.50;;;;;;;14.82;64.19;102231.00;5054571;28;20027;-72
2022/07/18 03:03:17;;;;;;;5.07;3.30;;;;;;;14.80;64.14;102231.94;5062448;28;20040;-71
2022/07/18 03:05:42;;;;;;;6.30;3.55;;;;;;;14.79;63.97;102232.81;5059706;28;20028;-71
2022/07/18 03:08:07;;;;;;;8.52;3.38;;;;;;;14.77;64.25;102234.59;5058900;28;20423;-71
2022/07/18 03:10:33;;;;;;;7.05;3.22;;;;;;;14.74;65.71;102226.81;5061155;28;20028;-71
2022/07/18 03:12:58;;;;;;;5.30;3.08;;;;;;;14.68;65.72;102228.69;5062278;28;20029;-71
2022/07/18 03:15:23;;;;;;;5.03;2.92;;;;;;;14.67;66.10;102226.94;5057783;28;20016;-70
2022/07/18 03:17:48;;;;;;;5.35;3.22;;;;;;;14.66;66.27;102227.81;5060530;28;20032;-71
2022/07/18 03:20:14;;;;;;;4.72;2.97;;;;;;;14.64;66.24;102228.72;5063005;28;20098;-71
2022/07/18 03:22:39;;;;;;;4.30;2.95;;;;;;;14.60;65.56;102217.47;5055179;28;20711;-71
2022/07/18 03:25:04;;;;;;;6.60;2.80;;;;;;;14.59;66.39;102213.09;5056704;28;20071;-71
2022/07/18 03:27:30;;;;;;;5.18;2.97;;;;;;;14.56;66.23;102213.16;5065156;28;20021;-71
2022/07/18 03:29:55;;;;;;;4.60;2.83;;;;;;;14.55;66.13;102214.06;5055272;28;20536;-71
2022/07/18 03:32:20;;;;;;;5.72;3.40;;;;;;;14.50;66.60;102210.69;5057410;28;20483;-71
2022/07/18 03:34:46;;;;;;;6.25;2.80;;;;;;;14.47;66.09;102210.75;5060732;28;20029;-71
2022/07/18 03:37:11;;;;;;;6.00;3.35;;;;;;;14.45;66.48;102207.28;5058691;28;20032;-71
2022/07/18 03:39:36;;;;;;;6.55;3.22;;;;;;;14.44;66.51;102200.34;5063229;28;20036;-71
2022/07/18 03:42:02;;;;;;;5.22;2.97;;;;;;;14.42;67.43;102203.84;5060127;28;20033;-71
2022/07/18 03:44:27;;;;;;;4.30;3.10;;;;;;;14.39;67.02;102201.28;5060695;28;20036;-71
2022/07/18 03:46:53;;;;;;;5.65;2.85;;;;;;;14.39;66.52;102203.06;5055426;28;21328;-71
2022/07/18 03:49:19;;;;;;;5.65;3.20;;;;;;;14.36;67.00;102203.94;5048938;28;20032;-71
2022/07/18 03:51:44;;;;;;;5.32;3.03;;;;;;;14.35;67.26;102202.22;5053876;28;20054;-71
2022/07/18 03:54:09;;;;;;;5.25;3.25;;;;;;;14.37;66.79;102200.44;5061351;28;20460;-71
2022/07/18 03:56:35;;;;;;;6.35;3.20;;;;;;;14.36;67.17;102201.34;5056648;28;20083;-71
2022/07/18 03:59:01;;;;;;;5.70;3.30;;;;;;;14.36;66.88;102203.09;5061883;28;20380;-71
2022/07/18 04:01:26;;;;;;;4.97;3.20;;;;;;;14.35;66.95;102201.38;5061358;28;20474;-71
2022/07/18 04:03:51;;;;;;;5.20;3.20;;;;;;;14.36;66.88;102198.72;5062083;28;20463;-71
2022/07/18 04:06:16;;;;;;;6.28;3.38;;;;;;;14.35;67.13;102186.50;5058265;28;20032;-71
2022/07/18 04:08:42;;;;;;;19.92;3.85;;;;;;;14.38;67.44;102191.69;5062996;28;20467;-71
2022/07/18 04:11:07;;;;;;;17.92;3.35;;;;;;;14.38;67.35;102196.94;5059365;28;20025;-71
2022/07/18 04:13:32;;;;;;;10.98;3.42;;;;;;;14.39;67.00;102193.41;5053965;28;20043;-71
2022/07/18 04:15:57;;;;;;;5.15;3.55;;;;;;;14.40;67.06;102195.16;5057447;28;20180;-71
2022/07/18 04:18:23;;;;;;;5.38;3.60;;;;;;;14.43;66.58;102196.88;5058738;28;20033;-71
2022/07/18 04:20:48;;;;;;;10.20;3.20;;;;;;;14.43;66.91;102189.00;5047634;28;20498;-71
2022/07/18 04:23:13;;;;;;;8.82;3.60;;;;;;;14.41;67.17;102191.63;5055913;28;20037;-71
2022/07/18 04:25:41;;;;;;;5.45;3.22;;;;;;;14.45;66.84;102186.34;5058820;28;20432;-71
2022/07/18 04:28:09;;;;;;;5.65;3.58;;;;;;;14.46;65.92;102188.94;5051241;28;20581;-71
2022/07/18 04:30:35;;;;;;;6.88;3.50;;;;;;;14.48;65.89;102184.53;5061927;28;20025;-71
2022/07/18 04:33:06;;;;;;;7.35;4.03;;;;;;;14.48;66.46;102181.91;5056552;28;20162;-71
2022/07/18 04:35:32;;;;;;;8.70;4.28;;;;;;;14.49;66.25;102183.63;5058498;28;20048;-71
2022/07/18 04:37:57;;;;;;;7.88;3.63;;;;;;;14.51;66.45;102183.63;5058729;28;20550;-70
2022/07/18 04:40:23;;;;;;;5.53;3.92;;;;;;;14.55;66.37;102174.78;5053905;28;20044;-71
2022/07/18 04:42:49;;;;;;;7.50;3.38;;;;;;;14.57;67.35;102176.50;5057650;28;20020;-71
2022/07/18 04:45:15;;;;;;;7.35;3.70;;;;;;;14.61;67.46;102165.91;5031140;28;20491;-71
2022/07/18 04:47:41;;;;;;;5.82;3.28;;;;;;;14.64;67.40;102169.34;5053842;28;20036;-70
2022/07/18 04:50:07;;;;;;;6.38;3.28;;;;;;;14.67;67.32;102171.91;5052333;28;20039;-71
2022/07/18 04:52:37;;;;;;;7.90;3.70;;;;;;;14.68;67.28;102167.56;5057946;28;20249;-71
2022/07/18 04:55:03;;;;;;;5.38;3.42;;;;;;;14.69;67.40;102170.13;5047248;28;20414;-71
2022/07/18 04:57:28;;;;;;;5.43;3.40;;;;;;;14.71;67.35;102173.59;5057068;28;20096;-72
2022/07/18 04:59:53;;;;;;;5.68;3.35;;;;;;;14.77;68.10;102166.50;5051521;28;20044;-71
2022/07/18 05:02:19;;;;;;;6.05;3.47;;;;;;;14.82;68.08;102164.66;5053606;28;20547;-71
2022/07/18 05:04:44;;;;;;;5.63;3.33;;;;;;;14.89;67.99;102171.47;5056550;28;20048;-71
2022/07/18 05:07:09;;;;;;;5.07;3.50;;;;;;;14.92;68.34;102171.38;5060312;28;20024;-72
2022/07/18 05:09:34;;;;;;;6.57;3.70;;;;;;;14.96;68.31;102173.06;5039170;28;20032;-70
2022/07/18 05:12:00;;;;;;;5.45;3.33;;;;;;;15.02;67.62;102179.91;5057967;28;20181;-70
2022/07/18 05:14:25;;;;;;;6.30;3.70;;;;;;;15.07;67.52;102174.56;5046933;28;20036;-71
2022/07/18 05:16:50;;;;;;;6.25;3.90;;;;;;;15.14;67.30;102176.16;5047544;28;20391;-71
2022/07/18 05:19:16;;;;;;;5.57;3.65;;;;;;;15.20;67.40;102181.22;5053194;28;20028;-71
2022/07/18 05:21:42;;;;;;;7.88;3.75;;;;;;;15.27;67.25;102182.81;5057003;28;20468;-71
2022/07/18 05:24:08;;;;;;;5.70;3.58;;;;;;;15.35;66.32;102173.91;5057013;28;20392;-71
2022/07/18 05:26:33;;;;;;;7.50;3.78;;;;;;;15.43;66.00;102174.56;5052235;28;20036;-71
2022/07/18 05:28:59;;;;;;;8.15;3.80;;;;;;;15.52;66.44;102173.47;5057975;28;20028;-71
2022/07/18 05:31:24;;;;;;;6.05;3.67;;;;;;;15.58;65.41;102174.19;5057272;28;20471;-71
2022/07/18 05:33:49;;;;;;;7.97;4.05;;;;;;;15.67;64.28;102175.72;5053245;28;20031;-71
2022/07/18 05:36:14;;;;;;;9.38;3.85;;;;;;;15.77;64.26;102168.47;5052381;28;20108;-71
2022/07/18 05:38:40;;;;;;;5.75;3.72;;;;;;;15.86;64.64;102170.88;5053471;28;20809;-71
2022/07/18 05:41:05;;;;;;;8.02;3.90;;;;;;;15.97;63.76;102172.34;5053384;28;20033;-71
2022/07/18 05:43:31;;;;;;;5.88;3.25;;;;;;;16.05;63.84;102166.00;5057510;28;20024;-71
2022/07/18 05:45:56;;;;;;;6.35;3.85;;;;;;;16.14;63.71;102170.13;5053264;28;20437;-71
2022/07/18 05:48:21;;;;;;;6.50;3.55;;;;;;;16.23;63.68;102169.84;5047302;28;20041;-71
2022/07/18 05:50:47;;;;;;;6.93;3.28;;;;;;;16.31;63.20;102171.41;5058602;28;20024;-71
2022/07/18 05:53:12;;;;;;;7.60;3.33;;;;;;;16.38;64.65;102167.72;5066861;28;20450;-71
2022/07/18 05:55:37;;;;;;;6.28;3.38;;;;;;;16.46;62.38;102170.97;5063670;28;20040;-71
2022/07/18 05:58:03;;;;;;;5.00;3.28;;;;;;;16.53;62.66;102175.16;5065108;28;20073;-71
2022/07/18 06:00:29;;;;;;;5.38;3.50;;;;;;;16.61;62.07;102179.28;5066030;28;20029;-71
2022/07/18 06:02:54;;;;;;;10.63;3.67;;;;;;;16.66;61.46;102183.50;5068917;28;20078;-71
2022/07/18 06:05:20;;;;;;;5.90;3.50;;;;;;;16.73;61.80;102172.81;5066841;28;20099;-71
2022/07/18 06:07:45;;;;;;;8.13;3.67;;;;;;;16.78;62.06;102177.03;5060620;28;20036;-71
2022/07/18 06:10:11;;;;;;;9.25;3.35;;;;;;;16.83;61.22;102177.75;5057681;28;20021;-72
2022/07/18 06:12:37;;;;;;;6.78;3.60;;;;;;;16.90;60.68;102170.53;5059359;28;20119;-71
2022/07/18 06:15:03;;;;;;;6.03;3.47;;;;;;;16.96;59.66;102169.50;5069044;28;20020;-71
2022/07/18 06:17:29;;;;;;;5.97;3.22;;;;;;;17.01;59.10;102164.97;5064072;28;20031;-71
2022/07/18 06:19:55;;;;;;;6.43;3.70;;;;;;;17.05;59.36;102169.22;5068839;28;20070;-71
2022/07/18 06:22:21;;;;;;;6.43;3.88;;;;;;;17.09;59.65;102167.34;5063185;28;20073;-71
2022/07/18 06:24:48;;;;;;;8.02;3.60;;;;;;;17.12;59.71;102165.47;5069704;28;20029;-71
2022/07/18 06:27:13;;;;;;;6.28;3.63;;;;;;;17.18;59.65;102168.84;5061985;28;20036;-71
2022/07/18 06:29:39;;;;;;;6.28;3.55;;;;;;;17.22;59.64;102155.53;5069059;28;20025;-71
2022/07/18 06:32:04;;;;;;;7.07;4.00;;;;;;;17.29;59.84;102157.06;5061045;28;20463;-72
2022/07/18 06:34:30;;;;;;;6.07;3.95;;;;;;;17.36;59.94;102157.72;5069172;28;20051;-71
2022/07/18 06:36:55;;;;;;;7.07;3.95;;;;;;;17.41;59.65;102152.28;5064836;28;20100;-71
2022/07/18 06:39:20;;;;;;;8.95;3.97;;;;;;;17.48;59.23;102155.56;5065605;28;20025;-71
2022/07/18 06:41:45;;;;;;;12.70;4.13;;;;;;;17.56;60.11;102153.56;5062105;28;20936;-71
2022/07/18 06:44:11;;;;;;;6.97;3.95;;;;;;;17.63;60.13;102144.50;5067954;28;20024;-71
2022/07/18 06:46:36;;;;;;;7.35;3.85;;;;;;;17.71;59.43;102145.13;5064003;28;20060;-72
2022/07/18 06:49:03;;;;;;;6.10;3.72;;;;;;;17.79;59.69;102138.72;5062746;28;20024;-71
2022/07/18 06:51:29;;;;;;;6.93;4.40;;;;;;;17.85;60.22;102133.25;5062413;28;20518;-71
2022/07/18 06:53:54;;;;;;;8.25;4.05;;;;;;;17.92;59.94;102126.84;5064788;28;20119;-72
2022/07/18 06:56:20;;;;;;;9.18;3.92;;;;;;;18.00;59.93;102137.97;5063107;28;20406;-72
2022/07/18 06:58:48;;;;;;;7.80;4.28;;;;;;;18.09;60.03;102142.06;5059872;28;20036;-72
2022/07/18 07:01:14;;;;;;;9.23;4.05;;;;;;;18.18;59.26;102140.84;5058772;28;20063;-72
2022/07/18 07:03:40;;;;;;;8.32;4.40;;;;;;;18.28;59.42;102136.94;5063894;28;20028;-72
2022/07/18 07:06:05;;;;;;;8.07;3.83;;;;;;;18.38;58.44;102142.72;5060763;28;20033;-72
2022/07/18 07:08:31;;;;;;;10.30;3.97;;;;;;;18.48;58.22;102144.13;5064654;28;20467;-72
2022/07/18 07:10:56;;;;;;;6.72;4.10;;;;;;;18.61;58.64;102135.72;5066600;28;20052;-72
2022/07/18 07:13:21;;;;;;;6.95;3.92;;;;;;;18.72;57.58;102140.56;5066978;28;20119;-72
2022/07/18 07:15:46;;;;;;;6.15;4.10;;;;;;;18.84;58.75;102147.16;5065860;28;20089;-72
2022/07/18 07:18:12;;;;;;;7.30;4.18;;;;;;;18.90;57.10;102155.66;5065878;28;20035;-72
2022/07/18 07:20:37;;;;;;;8.23;4.43;;;;;;;18.96;56.89;102167.78;5061140;28;20025;-72
2022/07/18 07:23:07;;;;;;;7.53;4.03;;;;;;;19.01;57.09;102157.91;5064853;28;20475;-72
2022/07/18 07:25:32;;;;;;;6.22;3.80;;;;;;;19.10;56.98;102154.03;5055614;28;20138;-71
2022/07/18 07:27:58;;;;;;;6.65;4.30;;;;;;;19.18;57.53;102157.22;5058447;28;20087;-72
2022/07/18 07:30:23;;;;;;;7.18;4.43;;;;;;;19.26;57.43;102156.88;5060367;28;20029;-72
2022/07/18 07:32:50;;;;;;;7.18;4.18;;;;;;;19.32;57.51;102151.38;5062128;28;20020;-72
2022/07/18 07:35:16;;;;;;;9.50;4.30;;;;;;;19.39;57.52;102146.69;5058343;28;20051;-72
2022/07/18 07:37:44;;;;;;;11.93;4.65;;;;;;;19.45;56.93;102150.84;5056128;28;20029;-72
2022/07/18 07:40:10;;;;;;;11.82;4.47;;;;;;;19.59;56.18;102153.75;5057911;28;20125;-72
2022/07/18 07:42:35;;;;;;;8.80;4.22;;;;;;;19.74;55.39;102146.06;5058386;28;20507;-72
2022/07/18 07:45:01;;;;;;;9.77;4.30;;;;;;;19.83;56.02;102143.91;5059101;28;20054;-72
2022/07/18 07:47:28;;;;;;;8.32;4.10;;;;;;;19.91;55.01;102140.09;5059033;28;20029;-72
2022/07/18 07:49:54;;;;;;;10.25;3.60;;;;;;;19.95;54.57;102131.13;5059688;28;20120;-72
2022/07/18 07:52:20;;;;;;;8.98;4.03;;;;;;;20.01;55.24;102130.81;5058877;28;20114;-72
2022/07/18 07:54:46;;;;;;;6.85;3.80;;;;;;;20.09;54.97;102133.13;5059446;28;20056;-72
2022/07/18 07:57:11;;;;;;;8.45;3.97;;;;;;;20.15;54.49;102115.19;5058100;28;20468;-72
2022/07/18 07:59:36;;;;;;;9.05;4.50;;;;;;;20.24;54.34;102119.19;5059476;28;20039;-72
2022/07/18 08:02:02;;;;;;;6.05;4.05;;;;;;;20.33;54.57;102112.63;5058946;28;20070;-72
2022/07/18 08:04:28;;;;;;;7.03;3.60;;;;;;;20.41;55.54;102107.84;5057323;28;20037;-72
2022/07/18 08:06:53;;;;;;;6.10;3.72;;;;;;;20.53;52.89;102110.84;5057845;28;20025;-72
2022/07/18 08:09:18;;;;;;;7.32;3.55;;;;;;;20.63;52.01;102098.91;5062580;28;20401;-72
2022/07/18 08:11:43;;;;;;;6.72;3.50;;;;;;;20.75;53.36;102087.75;5059922;28;20081;-72
2022/07/18 08:14:09;;;;;;;7.15;3.53;;;;;;;20.88;53.07;102084.50;5060816;28;20029;-72
2022/07/18 08:16:34;;;;;;;8.63;3.20;;;;;;;20.97;49.76;102092.00;5060772;28;20028;-72
2022/07/18 08:19:00;;;;;;;5.63;3.05;;;;;;;21.10;53.25;102088.72;5059134;28;20040;-72
2022/07/18 08:21:25;;;;;;;8.30;3.20;;;;;;;21.21;50.54;102095.19;5060677;28;20020;-73
2022/07/18 08:23:51;;;;;;;4.88;2.92;;;;;;;21.33;49.30;102099.00;5054764;28;20017;-72
2022/07/18 08:26:16;;;;;;;3.60;2.42;;;;;;;21.43;49.37;102101.16;5057744;28;20471;-72
2022/07/18 08:28:41;;;;;;;4.43;2.45;;;;;;;21.54;49.52;102106.75;5040546;28;20040;-72
2022/07/18 08:31:06;;;;;;;4.65;2.38;;;;;;;21.63;49.22;102108.09;5058088;28;20459;-72
2022/07/18 08:33:32;;;;;;;5.07;2.58;;;;;;;21.73;47.22;102113.75;5057509;28;20025;-72
2022/07/18 08:35:57;;;;;;;3.90;2.17;;;;;;;21.82;45.65;102115.94;5056649;28;20021;-72
2022/07/18 08:38:23;;;;;;;5.53;1.80;;;;;;;21.90;45.54;102112.88;5059383;28;20020;-72
2022/07/18 08:40:50;;;;;;;3.25;1.83;;;;;;;22.00;46.23;102114.06;5058113;28;20088;-72
2022/07/18 08:43:15;;;;;;;4.90;1.70;;;;;;;22.07;43.84;102114.59;5056310;28;20020;-72
2022/07/18 08:45:42;;;;;;;2.28;1.70;;;;;;;22.14;43.63;102114.19;5052986;28;20071;-72
2022/07/18 08:48:08;;;;;;;3.47;1.70;;;;;;;22.24;44.85;102108.38;5053321;28;20028;-72
2022/07/18 08:50:34;;;;;;;4.35;1.63;;;;;;;22.33;42.72;102114.97;5057260;28;20024;-72
2022/07/18 08:53:00;;;;;;;3.50;1.52;;;;;;;22.40;42.02;102105.72;5064892;28;20036;-72
2022/07/18 08:55:26;;;;;;;1.73;1.20;;;;;;;22.48;42.65;102100.88;5060086;28;20031;-72
2022/07/18 08:57:52;;;;;;;3.05;1.40;;;;;;;22.58;42.64;102109.19;5063164;28;20024;-72
2022/07/18 09:00:18;;;;;;;4.30;1.65;;;;;;;22.64;40.80;102110.63;5060356;28;20020;-72
2022/07/18 09:02:43;;;;;;;3.85;1.52;;;;;;;22.71;42.14;102112.84;5062226;28;20953;-72
2022/07/18 09:05:18;;;;;;;3.05;1.17;;;;;;;22.76;41.90;102109.91;5061122;28;20475;-72
2022/07/18 09:07:44;;;;;;;4.43;1.33;;;;;;;22.84;42.14;102102.38;5064069;28;20039;-72
2022/07/18 09:10:09;;;;;;;2.70;1.40;;;;;;;22.93;41.13;102105.44;5062831;28;20029;-72
2022/07/18 09:12:34;;;;;;;2.30;1.38;;;;;;;23.03;41.51;102103.97;5062007;28;20020;-72
2022/07/18 09:15:07;;;;;;;2.67;1.20;;;;;;;23.12;41.58;102097.25;5060510;28;20482;-72
2022/07/18 09:17:34;;;;;;;4.75;1.55;;;;;;;23.17;39.66;102100.47;5062628;28;20028;-72
2022/07/18 09:20:08;;;;;;;3.13;1.40;;;;;;;23.22;39.39;102097.59;5061539;28;20028;-72
2022/07/18 09:22:36;;;;;;;3.90;1.40;;;;;;;23.24;38.76;102101.00;5059316;28;20028;-72
2022/07/18 09:25:04;;;;;;;3.85;1.52;;;;;;;23.29;39.43;102101.59;5061402;28;20376;-72
2022/07/18 09:27:38;;;;;;;3.42;1.40;;;;;;;23.36;40.63;102100.28;5065176;28;20364;-72
2022/07/18 09:30:16;;;;;;;1.70;1.30;;;;;;;23.42;40.61;102105.19;5045178;28;20016;-72
2022/07/18 09:32:46;;;;;;;5.00;1.65;;;;;;;23.51;41.05;102103.78;5056773;28;20126;-72
2022/07/18 09:35:16;;;;;;;3.70;1.42;;;;;;;23.62;41.60;102106.66;5060853;28;20028;-72
2022/07/18 09:37:53;;;;;;;2.97;1.60;;;;;;;23.71;40.89;102107.91;5053975;28;20039;-72
2022/07/18 09:40:21;;;;;;;3.20;1.60;;;;;;;23.79;39.18;102107.44;5063772;28;20079;-72
2022/07/18 09:42:50;;;;;;;11.13;1.70;;;;;;;23.85;38.86;102101.72;5063579;28;20032;-72
2022/07/18 09:45:15;;;;;;;3.08;1.33;;;;;;;23.90;38.35;102106.75;5055575;28;20396;-73
2022/07/18 09:47:52;;;;;;;4.57;1.60;;;;;;;23.93;39.14;102104.75;5059196;28;20027;-72
2022/07/18 09:50:33;;;;;;;4.30;1.30;;;;;;;23.97;39.13;102102.78;5058990;28;20119;-73
2022/07/18 09:53:03;;;;;;;3.05;1.42;;;;;;;24.04;38.25;102101.47;5059349;28;20246;-75
2022/07/18 09:55:29;;;;;;;3.10;1.30;;;;;;;24.10;37.67;102101.06;5061940;28;20483;-73
2022/07/18 09:58:06;;;;;;;3.88;1.20;;;;;;;24.17;38.12;102095.34;5063297;28;20067;-73
2022/07/18 10:00:37;;;;;;;3.38;1.10;;;;;;;24.24;37.28;102099.34;5061249;28;20414;-73
2022/07/18 10:03:03;;;;;;;;;;;;;;;24.26;39.55;102102.72;5061151;28;20021;-72
2022/07/18 10:05:31;;;;;;;3.22;1.33;;;;;;;24.32;35.95;102101.50;5060010;28;20327;-73
2022/07/18 10:07:58;;;;;;;3.65;1.33;;;;;;;24.36;36.66;102101.22;5057629;28;21386;-72
2022/07/18 10:10:24;;;;;;;3.65;1.33;;;;;;;24.40;37.65;102100.06;5062897;28;20028;-72
2022/07/18 10:12:54;;;;;;;5.00;1.40;;;;;;;24.48;36.80;102094.25;5067738;28;20107;-72
2022/07/18 10:15:25;;;;;;;2.20;1.30;;;;;;;24.57;37.79;102092.78;5060200;28;20036;-73
2022/07/18 10:17:51;;;;;;;3.50;1.33;;;;;;;24.64;36.46;102096.75;5062686;28;20036;-73
2022/07/18 10:20:18;;;;;;;3.35;1.58;;;;;;;24.69;36.44;102081.31;5056188;28;20044;-72
2022/07/18 10:22:45;;;;;;;3.38;1.40;;;;;;;24.74;35.83;102082.88;5057666;28;20538;-76
2022/07/18 10:25:12;;;;;;;2.78;1.48;;;;;;;24.79;36.45;102086.94;5053970;28;20028;-74
2022/07/18 10:27:50;;;;;;;2.38;1.40;;;;;;;24.86;38.04;102095.34;5060766;28;20061;-74
2022/07/18 10:30:19;;;;;;;6.03;1.60;;;;;;;24.92;37.87;102086.09;5059270;28;20028;-75
2022/07/18 10:32:45;;;;;;;4.75;1.60;;;;;;;25.01;38.12;102090.81;5058989;28;20423;-74
2022/07/18 10:35:15;;;;;;;1.90;1.30;;;;;;;25.07;39.14;102078.91;5062408;28;20487;-73
2022/07/18 10:37:41;;;;;;;2.65;1.30;;;;;;;25.14;36.78;102080.16;5057297;28;20033;-74
2022/07/18 10:40:24;;;;;;;3.03;1.40;;;;;;;25.24;37.82;102085.72;5059698;28;21825;-74
2022/07/18 10:43:29;;;;;;;2.92;1.40;;;;;;;25.29;37.06;102081.75;5039205;28;20324;-73
2022/07/18 10:45:54;;;;;;;2.22;1.30;;;;;;;25.37;36.83;102072.41;5060275;28;20357;-73
2022/07/18 10:48:37;;;;;;;5.43;1.30;;;;;;;25.44;37.73;102082.56;5057307;28;20459;-74
2022/07/18 10:51:08;;;;;;;2.63;1.38;;;;;;;25.49;36.51;102079.56;5058710;28;20103;-74
2022/07/18 10:53:55;;;;;;;2.60;1.52;;;;;;;25.52;37.35;102074.03;5059890;28;20033;-74
2022/07/18 10:56:20;;;;;;;3.63;1.40;;;;;;;25.58;35.92;102078.06;5059855;28;20135;-73
2022/07/18 10:58:46;;;;;;;6.03;1.50;;;;;;;25.64;36.20;102074.13;5053946;28;20773;-73
2022/07/18 11:01:17;;;;;;;2.17;1.20;;;;;;;25.70;37.78;102071.91;5059380;28;20028;-74
2022/07/18 11:03:43;;;;;;;3.65;1.33;;;;;;;25.68;36.89;102080.94;5062578;28;20032;-74
2022/07/18 11:06:09;;;;;;;2.45;1.30;;;;;;;25.67;35.80;102077.44;5055525;28;20454;-75
2022/07/18 11:08:35;;;;;;;3.33;1.60;;;;;;;25.69;35.66;102069.31;5040172;28;20169;-74
2022/07/18 11:11:09;;;;;;;5.85;1.30;;;;;;;25.72;36.31;102071.78;5054029;28;20035;-75
2022/07/18 11:13:36;;;;;;;3.58;1.42;;;;;;;25.74;36.27;102068.03;5052625;28;20078;-74
2022/07/18 11:16:23;;;;;;;4.38;1.50;;;;;;;25.74;37.45;102064.53;5054347;28;20039;-74
2022/07/18 11:18:50;;;;;;;3.58;1.50;;;;;;;25.80;36.89;102065.91;5059453;28;20028;-75
2022/07/18 11:21:21;;;;;;;2.90;1.42;;;;;;;25.83;37.20;102063.84;5060285;28;20021;-75
2022/07/18 11:23:50;;;;;;;1.90;1.30;;;;;;;25.90;36.07;102053.59;5055536;28;20037;-74